createdAt,value
2023-03-31T00:02:24.077Z,14.57
2023-03-31T00:04:53.101Z,12.82
2023-03-31T00:07:24.937Z,12.15
2023-03-31T00:10:00.876Z,13.18
2023-03-31T00:12:34.524Z,12.60
2023-03-31T00:15:01.463Z,13.18
2023-03-31T00:17:28.470Z,12.80
2023-03-31T00:20:00.306Z,13.27
2023-03-31T00:22:27.866Z,13.07
2023-03-31T00:24:54.938Z,12.82
2023-03-31T00:27:21.965Z,13.23
2023-03-31T00:29:50.850Z,13.23
2023-03-31T00:32:17.896Z,12.80
2023-03-31T00:34:46.448Z,12.82
2023-03-31T00:37:14.958Z,13.60
2023-03-31T00:39:43.417Z,13.32
2023-03-31T00:42:13.740Z,13.05
2023-03-31T00:45:21.827Z,13.18
2023-03-31T00:48:11.543Z,12.65
2023-03-31T00:50:49.181Z,12.52
2023-03-31T00:53:20.506Z,12.48
2023-03-31T00:55:52.706Z,12.02
2023-03-31T00:58:21.199Z,12.63
2023-03-31T01:00:49.444Z,12.65
2023-03-31T01:03:18.604Z,12.68
2023-03-31T01:06:01.977Z,12.93
2023-03-31T01:08:29.722Z,13.02
2023-03-31T01:11:09.423Z,13.07
2023-03-31T01:13:38.891Z,12.85
2023-03-31T01:16:09.644Z,12.90
2023-03-31T01:18:37.433Z,12.18
2023-03-31T01:21:18.754Z,12.13
2023-03-31T01:24:06.976Z,12.65
2023-03-31T01:26:48.159Z,13.68
2023-03-31T01:29:46.527Z,12.35
2023-03-31T01:32:50.489Z,11.77
2023-03-31T01:35:36.403Z,12.40
2023-03-31T01:38:29.209Z,11.63
2023-03-31T01:41:37.470Z,11.43
2023-03-31T01:44:16.772Z,11.07
2023-03-31T01:47:01.092Z,11.25
2023-03-31T01:49:36.425Z,11.90
2023-03-31T01:52:37.472Z,11.05
2023-03-31T01:55:33.057Z,11.35
2023-03-31T01:58:07.008Z,11.00
2023-03-31T02:00:42.163Z,12.15
2023-03-31T02:03:19.427Z,11.25
2023-03-31T02:05:57.610Z,11.32
2023-03-31T02:08:31.286Z,10.48
2023-03-31T02:10:59.899Z,11.07
2023-03-31T02:13:29.316Z,10.40
2023-03-31T02:16:01.591Z,10.07
2023-03-31T02:18:33.492Z,10.65
2023-03-31T02:21:01.659Z,9.75
2023-03-31T02:23:32.003Z,9.57
2023-03-31T02:26:08.547Z,10.20
2023-03-31T02:28:36.766Z,9.15
2023-03-31T02:31:29.089Z,9.48
2023-03-31T02:33:57.667Z,8.60
2023-03-31T02:36:25.527Z,9.05
2023-03-31T02:38:59.611Z,8.25
2023-03-31T02:41:28.148Z,8.77
2023-03-31T02:43:57.276Z,7.80
2023-03-31T02:46:25.609Z,8.48
2023-03-31T02:48:57.247Z,7.65
2023-03-31T02:52:16.105Z,7.57
2023-03-31T02:55:17.312Z,7.50
2023-03-31T02:58:09.955Z,6.97
2023-03-31T03:01:07.717Z,6.43
2023-03-31T03:03:51.278Z,6.57
2023-03-31T03:06:53.918Z,6.53
2023-03-31T03:09:51.848Z,6.28
2023-03-31T03:12:39.043Z,5.85
2023-03-31T03:15:14.409Z,6.10
2023-03-31T03:17:47.233Z,6.18
2023-03-31T03:20:16.382Z,6.30
2023-03-31T03:22:44.015Z,5.90
2023-03-31T03:25:13.556Z,5.85
2023-03-31T03:27:41.168Z,5.85
2023-03-31T03:30:11.485Z,5.70
2023-03-31T03:32:38.886Z,5.93
2023-03-31T03:35:06.970Z,5.93
2023-03-31T03:37:34.640Z,5.57
2023-03-31T03:40:01.768Z,5.80
2023-03-31T03:42:28.898Z,5.57
2023-03-31T03:44:56.005Z,4.82
2023-03-31T03:47:23.197Z,4.95
2023-03-31T03:49:50.522Z,5.18
2023-03-31T03:52:17.895Z,4.68
2023-03-31T03:54:44.940Z,4.88
2023-03-31T03:57:12.113Z,4.43
2023-03-31T03:59:39.257Z,4.30
2023-03-31T04:02:06.322Z,4.72
2023-03-31T04:04:33.468Z,5.15
2023-03-31T04:07:00.768Z,4.80
2023-03-31T04:09:28.743Z,4.85
2023-03-31T04:11:55.926Z,4.38
2023-03-31T04:14:23.018Z,4.53
2023-03-31T04:16:50.105Z,4.57
2023-03-31T04:19:21.941Z,4.15
2023-03-31T04:21:50.905Z,4.72
2023-03-31T04:24:21.941Z,4.35
2023-03-31T04:26:51.028Z,4.20
2023-03-31T04:29:20.716Z,4.45
2023-03-31T04:31:47.933Z,4.30
2023-03-31T04:34:15.777Z,4.80
2023-03-31T04:36:47.718Z,4.22
2023-03-31T04:39:17.312Z,4.78
2023-03-31T04:41:45.600Z,4.40
2023-03-31T04:44:12.730Z,4.47
2023-03-31T04:46:39.817Z,4.50
2023-03-31T04:49:06.929Z,4.38
2023-03-31T04:51:33.918Z,4.45
2023-03-31T04:54:01.027Z,4.20
2023-03-31T04:56:28.317Z,4.28
2023-03-31T04:58:55.398Z,4.50
2023-03-31T05:01:22.472Z,4.82
2023-03-31T05:03:49.643Z,4.75
2023-03-31T05:06:17.289Z,4.72
2023-03-31T05:08:44.812Z,4.38
2023-03-31T05:11:11.994Z,4.40
2023-03-31T05:13:39.102Z,5.22
2023-03-31T05:16:08.334Z,4.78
2023-03-31T05:18:35.957Z,5.40
2023-03-31T05:21:13.402Z,5.28
2023-03-31T05:23:40.622Z,5.05
2023-03-31T05:26:08.833Z,5.20
2023-03-31T05:28:37.098Z,5.63
2023-03-31T05:31:05.527Z,5.75
2023-03-31T05:33:33.181Z,6.13
2023-03-31T05:36:00.636Z,5.85
2023-03-31T05:38:31.764Z,5.70
2023-03-31T05:40:58.929Z,5.82
2023-03-31T05:43:26.210Z,6.53
2023-03-31T05:45:53.406Z,6.40
2023-03-31T05:48:21.519Z,6.53
2023-03-31T05:50:48.627Z,7.40
2023-03-31T05:53:15.923Z,6.82
2023-03-31T05:55:42.943Z,7.10
2023-03-31T05:58:10.050Z,6.50
2023-03-31T06:00:38.020Z,6.82
2023-03-31T06:03:07.969Z,6.30
2023-03-31T06:05:35.714Z,7.03
2023-03-31T06:08:03.736Z,7.32
2023-03-31T06:10:30.869Z,6.80
2023-03-31T06:12:57.947Z,6.72
2023-03-31T06:15:25.097Z,6.90
2023-03-31T06:17:52.212Z,6.78
2023-03-31T06:20:30.116Z,7.30
2023-03-31T06:22:57.164Z,7.53
2023-03-31T06:25:24.550Z,7.22
2023-03-31T06:27:51.641Z,7.07
2023-03-31T06:30:18.896Z,6.75
2023-03-31T06:32:46.037Z,6.47
2023-03-31T06:35:13.180Z,6.80
2023-03-31T06:37:40.342Z,6.50
2023-03-31T06:40:08.293Z,6.53
2023-03-31T06:42:35.875Z,6.20
2023-03-31T06:45:02.965Z,6.38
2023-03-31T06:47:30.059Z,6.22
2023-03-31T06:49:57.130Z,6.35
2023-03-31T06:52:24.252Z,6.18
2023-03-31T06:54:51.476Z,6.57
2023-03-31T06:57:18.952Z,6.43
2023-03-31T06:59:46.051Z,6.20
2023-03-31T07:02:13.169Z,6.80
2023-03-31T07:04:40.164Z,5.65
2023-03-31T07:07:07.349Z,5.30
2023-03-31T07:09:34.359Z,5.07
2023-03-31T07:12:01.889Z,4.93
2023-03-31T07:14:28.879Z,4.30
2023-03-31T07:16:56.099Z,3.80
2023-03-31T07:19:23.541Z,3.80
2023-03-31T07:21:51.489Z,4.38
2023-03-31T07:24:18.753Z,3.72
2023-03-31T07:26:46.064Z,4.32
2023-03-31T07:29:13.339Z,3.63
2023-03-31T07:31:40.890Z,4.20
2023-03-31T07:34:08.130Z,3.78
2023-03-31T07:36:35.402Z,4.10
2023-03-31T07:39:02.732Z,3.63
2023-03-31T07:41:29.828Z,3.92
2023-03-31T07:43:57.076Z,4.20
2023-03-31T07:46:26.970Z,3.80
2023-03-31T07:48:56.766Z,3.95
2023-03-31T07:51:25.856Z,2.95
2023-03-31T07:53:53.664Z,2.63
2023-03-31T07:56:22.815Z,2.70
2023-03-31T07:58:52.429Z,2.45
2023-03-31T08:01:21.934Z,2.90
2023-03-31T08:03:49.303Z,3.05
2023-03-31T08:06:21.955Z,2.83
2023-03-31T08:08:50.651Z,3.05
2023-03-31T08:11:18.452Z,2.50
2023-03-31T08:13:45.878Z,2.70
2023-03-31T08:16:12.997Z,2.80
2023-03-31T08:18:40.214Z,2.90
2023-03-31T08:21:09.785Z,3.40
2023-03-31T08:23:37.343Z,2.95
2023-03-31T08:26:18.047Z,3.30
2023-03-31T08:28:48.827Z,3.10
2023-03-31T08:31:17.469Z,2.75
2023-03-31T08:33:45.765Z,2.90
2023-03-31T08:36:14.061Z,2.53
2023-03-31T08:38:42.968Z,3.03
2023-03-31T08:41:48.247Z,2.60
2023-03-31T08:44:33.182Z,2.60
2023-03-31T08:47:03.096Z,2.50
2023-03-31T08:49:40.030Z,3.13
2023-03-31T08:52:14.856Z,2.55
2023-03-31T08:54:51.844Z,2.47
2023-03-31T08:57:31.708Z,2.50
2023-03-31T09:00:07.134Z,2.40
2023-03-31T09:03:14.538Z,2.40
2023-03-31T09:06:00.643Z,2.97
2023-03-31T09:08:37.145Z,2.50
2023-03-31T09:11:13.372Z,2.25
2023-03-31T09:14:12.199Z,2.78
2023-03-31T09:16:46.645Z,2.63
2023-03-31T09:19:38.652Z,2.95
2023-03-31T09:22:22.508Z,3.05
2023-03-31T09:25:11.990Z,2.33
2023-03-31T09:27:42.614Z,2.50
2023-03-31T09:30:22.430Z,2.45
2023-03-31T09:33:15.156Z,3.00
2023-03-31T09:35:43.436Z,2.78
2023-03-31T09:38:13.850Z,2.60
2023-03-31T09:40:42.412Z,2.70
2023-03-31T09:43:22.834Z,2.10
2023-03-31T09:46:07.791Z,2.30
2023-03-31T09:48:37.909Z,2.28
2023-03-31T09:51:07.897Z,2.60
2023-03-31T09:54:01.168Z,2.17
2023-03-31T09:56:47.202Z,1.85
2023-03-31T09:59:31.568Z,2.00
2023-03-31T10:02:03.048Z,1.98
2023-03-31T10:04:33.918Z,2.22
2023-03-31T10:07:04.426Z,2.00
2023-03-31T10:09:34.460Z,2.15
2023-03-31T10:12:15.083Z,1.80
2023-03-31T10:14:48.229Z,2.00
2023-03-31T10:17:19.598Z,1.90
2023-03-31T10:19:59.425Z,2.05
2023-03-31T10:22:35.660Z,2.03
2023-03-31T10:25:24.234Z,1.85
2023-03-31T10:27:54.295Z,1.70
2023-03-31T10:30:24.834Z,1.90
2023-03-31T10:32:54.599Z,2.10
2023-03-31T10:35:22.155Z,2.20
2023-03-31T10:37:51.376Z,1.90
2023-03-31T10:40:30.690Z,2.20
2023-03-31T10:43:06.773Z,1.85
2023-03-31T10:45:58.419Z,1.63
2023-03-31T10:48:34.285Z,1.85
2023-03-31T10:51:04.769Z,1.60
2023-03-31T10:53:50.513Z,1.73
2023-03-31T10:56:27.189Z,1.90
2023-03-31T10:59:05.171Z,1.90
2023-03-31T11:01:43.361Z,2.00
2023-03-31T11:04:38.305Z,2.00
2023-03-31T11:07:38.280Z,2.25
2023-03-31T11:10:43.080Z,2.08
2023-03-31T11:13:36.961Z,2.22
2023-03-31T11:16:25.975Z,1.95
2023-03-31T11:19:34.958Z,1.77
2023-03-31T11:22:46.861Z,1.70
2023-03-31T11:25:22.307Z,2.60
2023-03-31T11:28:26.266Z,1.48
2023-03-31T11:31:02.371Z,1.58
2023-03-31T11:33:41.106Z,1.60
2023-03-31T11:36:36.912Z,1.67
2023-03-31T11:39:31.056Z,1.80
2023-03-31T11:42:10.412Z,2.10
2023-03-31T11:44:53.019Z,1.90
2023-03-31T11:47:30.738Z,2.30
2023-03-31T11:50:04.086Z,1.67
2023-03-31T11:52:34.833Z,2.00
2023-03-31T11:55:07.309Z,1.70
2023-03-31T11:57:57.317Z,2.20
2023-03-31T12:00:33.972Z,2.35
2023-03-31T12:03:13.130Z,1.80
2023-03-31T12:05:49.253Z,2.13
2023-03-31T12:08:35.628Z,2.40
2023-03-31T12:11:24.020Z,1.80
2023-03-31T12:14:18.922Z,1.95
2023-03-31T12:16:51.174Z,1.90
2023-03-31T12:19:28.134Z,2.17
2023-03-31T12:22:11.115Z,1.90
2023-03-31T12:24:38.330Z,2.00
2023-03-31T12:27:22.017Z,2.15
2023-03-31T12:30:05.010Z,2.10
2023-03-31T12:32:39.567Z,1.85
2023-03-31T12:35:27.482Z,1.90
2023-03-31T12:38:19.291Z,2.33
2023-03-31T12:41:20.035Z,2.33
2023-03-31T12:44:20.411Z,2.20
2023-03-31T12:47:06.430Z,2.17
2023-03-31T12:49:42.429Z,2.15
2023-03-31T12:52:19.218Z,1.92
2023-03-31T12:55:01.500Z,1.70
2023-03-31T12:57:28.815Z,1.77
2023-03-31T13:00:11.914Z,1.83
2023-03-31T13:02:40.240Z,1.73
2023-03-31T13:05:38.299Z,1.60
2023-03-31T13:08:11.069Z,1.40
2023-03-31T13:10:59.416Z,1.80
2023-03-31T13:13:27.050Z,1.60
2023-03-31T13:15:57.107Z,1.50
2023-03-31T13:18:24.718Z,1.50
2023-03-31T13:23:37.444Z,1.83
2023-03-31T13:26:06.974Z,2.30
2023-03-31T13:28:38.259Z,2.05
2023-03-31T13:31:13.872Z,1.83
2023-03-31T13:33:57.569Z,1.85
2023-03-31T13:36:33.425Z,1.88
2023-03-31T13:39:37.945Z,1.67
2023-03-31T13:42:30.065Z,1.75
2023-03-31T13:45:39.418Z,2.05
2023-03-31T13:48:24.197Z,1.85
2023-03-31T13:50:56.906Z,2.03
2023-03-31T13:54:01.326Z,1.90
2023-03-31T13:57:02.293Z,1.48
2023-03-31T13:59:46.960Z,1.50
2023-03-31T14:02:32.962Z,1.80
2023-03-31T14:05:43.566Z,1.80
2023-03-31T14:08:39.648Z,1.42
2023-03-31T14:11:26.755Z,1.38
2023-03-31T14:14:13.224Z,1.38
2023-03-31T14:16:46.585Z,0.90
2023-03-31T14:19:30.036Z,0.80
2023-03-31T14:22:02.828Z,0.95
2023-03-31T14:24:38.269Z,1.05
2023-03-31T14:27:12.384Z,1.40
2023-03-31T14:30:01.717Z,1.15
2023-03-31T14:32:42.661Z,1.27
2023-03-31T14:35:33.647Z,1.20
2023-03-31T14:38:04.971Z,1.08
2023-03-31T14:40:32.212Z,1.23
2023-03-31T14:42:59.345Z,1.30
2023-03-31T14:45:31.596Z,0.77
2023-03-31T14:48:02.591Z,0.98
2023-03-31T14:50:35.078Z,0.93
2023-03-31T14:53:02.559Z,1.42
2023-03-31T14:55:49.751Z,1.00
2023-03-31T14:58:30.428Z,0.90
2023-03-31T15:00:58.638Z,1.10
2023-03-31T15:03:26.638Z,0.85
2023-03-31T15:05:59.133Z,1.05
2023-03-31T15:08:27.201Z,1.23
2023-03-31T15:11:02.485Z,1.20
2023-03-31T15:14:03.481Z,0.98
2023-03-31T15:16:43.685Z,1.20
2023-03-31T15:19:21.181Z,1.10
2023-03-31T15:22:01.889Z,1.40
2023-03-31T15:24:30.420Z,1.58
2023-03-31T15:27:03.355Z,1.50
2023-03-31T15:29:41.727Z,1.58
2023-03-31T15:32:15.173Z,1.70
2023-03-31T15:34:43.819Z,1.50
2023-03-31T15:37:11.208Z,1.73
2023-03-31T15:39:39.418Z,1.95
2023-03-31T15:42:08.255Z,1.67
2023-03-31T15:44:54.015Z,2.45
2023-03-31T15:47:31.952Z,1.98
2023-03-31T15:50:08.161Z,1.88
2023-03-31T15:52:38.561Z,2.33
2023-03-31T15:55:39.705Z,2.10
2023-03-31T15:58:07.231Z,2.13
2023-03-31T16:00:34.350Z,2.33
2023-03-31T16:03:04.682Z,2.42
2023-03-31T16:05:55.154Z,2.30
2023-03-31T16:08:37.625Z,2.08
2023-03-31T16:11:13.950Z,2.10
2023-03-31T16:13:47.725Z,2.40
2023-03-31T16:16:17.716Z,2.00
2023-03-31T16:18:51.199Z,2.15
2023-03-31T16:21:30.955Z,2.28
2023-03-31T16:24:00.488Z,2.50
2023-03-31T16:26:29.249Z,2.58
2023-03-31T16:28:57.754Z,2.47
2023-03-31T16:32:06.528Z,2.50
2023-03-31T16:34:33.773Z,5.85
2023-03-31T16:37:08.360Z,3.72
2023-03-31T16:39:35.518Z,2.47
2023-03-31T16:42:02.803Z,3.28
2023-03-31T16:44:30.039Z,2.80
2023-03-31T16:46:57.338Z,2.80
2023-03-31T16:49:24.642Z,3.05
2023-03-31T16:51:52.766Z,3.50
2023-03-31T16:54:19.910Z,3.13
2023-03-31T16:56:48.153Z,3.40
2023-03-31T16:59:15.678Z,3.65
2023-03-31T17:01:42.761Z,3.13
2023-03-31T17:04:09.950Z,3.38
2023-03-31T17:06:37.075Z,3.80
2023-03-31T17:09:04.169Z,3.40
2023-03-31T17:11:34.115Z,3.60
2023-03-31T17:14:02.424Z,4.50
2023-03-31T17:16:36.407Z,4.50
2023-03-31T17:19:12.150Z,4.55
2023-03-31T17:21:39.263Z,5.47
2023-03-31T17:24:07.849Z,5.40
2023-03-31T17:26:36.181Z,5.35
2023-03-31T17:29:03.908Z,5.55
2023-03-31T17:31:32.048Z,5.10
2023-03-31T17:33:59.792Z,5.38
2023-03-31T17:36:27.027Z,5.32
2023-03-31T17:38:55.491Z,6.45
2023-03-31T17:41:22.620Z,5.60
2023-03-31T17:43:50.310Z,5.30
2023-03-31T17:46:19.041Z,5.88
2023-03-31T17:48:46.356Z,5.95
2023-03-31T17:51:18.496Z,5.47
2023-03-31T17:53:47.813Z,5.38
2023-03-31T17:56:16.657Z,5.50
2023-03-31T17:58:44.044Z,5.75
2023-03-31T18:01:12.716Z,5.50
2023-03-31T18:03:40.093Z,5.68
2023-03-31T18:06:11.583Z,5.68
2023-03-31T18:08:39.805Z,5.82
2023-03-31T18:11:08.570Z,5.95
2023-03-31T18:13:36.463Z,6.53
2023-03-31T18:16:05.226Z,6.35
2023-03-31T18:18:32.758Z,6.80
2023-03-31T18:21:04.587Z,7.55
2023-03-31T18:23:32.169Z,7.07
2023-03-31T18:25:59.444Z,7.25
2023-03-31T18:28:27.224Z,8.68
2023-03-31T18:30:54.309Z,8.20
2023-03-31T18:33:21.721Z,7.20
2023-03-31T18:35:49.966Z,7.60
2023-03-31T18:38:18.507Z,7.38
2023-03-31T18:40:50.400Z,8.10
2023-03-31T18:43:22.508Z,7.63
2023-03-31T18:45:51.304Z,8.00
2023-03-31T18:48:19.246Z,7.57
2023-03-31T18:50:46.279Z,8.50
2023-03-31T18:53:15.491Z,8.18
2023-03-31T18:55:43.164Z,8.23
2023-03-31T18:58:10.732Z,8.00
2023-03-31T19:00:37.859Z,8.38
2023-03-31T19:03:05.232Z,8.20
2023-03-31T19:05:32.564Z,8.50
2023-03-31T19:07:59.945Z,8.20
2023-03-31T19:10:27.493Z,9.35
2023-03-31T19:12:54.694Z,8.77
2023-03-31T19:15:22.653Z,8.82
2023-03-31T19:17:49.730Z,7.50
2023-03-31T19:20:16.947Z,7.07
2023-03-31T19:22:49.401Z,7.53
2023-03-31T19:25:18.321Z,7.57
2023-03-31T19:27:46.343Z,6.72
2023-03-31T19:30:25.163Z,6.82
2023-03-31T19:32:52.260Z,6.90
2023-03-31T19:35:21.380Z,6.75
2023-03-31T19:37:52.540Z,7.13
2023-03-31T19:40:19.653Z,6.60
2023-03-31T19:42:46.630Z,7.20
2023-03-31T19:45:13.733Z,6.97
2023-03-31T19:47:40.997Z,7.13
2023-03-31T19:50:08.690Z,7.20
2023-03-31T19:52:36.016Z,6.65
2023-03-31T19:55:03.757Z,7.28
2023-03-31T19:57:31.073Z,7.68
2023-03-31T19:59:58.384Z,7.78
2023-03-31T20:02:26.553Z,7.38
2023-03-31T20:04:54.004Z,8.13
2023-03-31T20:07:21.389Z,8.30
2023-03-31T20:09:48.486Z,8.57
2023-03-31T20:12:15.970Z,9.00
2023-03-31T20:14:43.675Z,8.95
2023-03-31T20:17:12.752Z,8.85
2023-03-31T20:19:40.323Z,9.30
2023-03-31T20:22:07.373Z,9.95
2023-03-31T20:24:34.816Z,10.23
2023-03-31T20:27:02.128Z,9.60
2023-03-31T20:29:30.207Z,14.65
2023-03-31T20:31:57.421Z,10.05
2023-03-31T20:34:24.539Z,10.15
2023-03-31T20:36:52.051Z,10.10
2023-03-31T20:39:20.285Z,9.18
2023-03-31T20:41:48.175Z,10.02
2023-03-31T20:44:15.983Z,10.00
2023-03-31T20:46:44.697Z,10.77
2023-03-31T20:49:12.116Z,10.48
2023-03-31T20:51:39.606Z,10.27
2023-03-31T20:54:08.004Z,11.30
2023-03-31T20:56:37.901Z,10.38
2023-03-31T20:59:06.928Z,10.55
2023-03-31T21:01:35.966Z,10.70
2023-03-31T21:04:05.770Z,10.60
2023-03-31T21:06:41.840Z,10.07
2023-03-31T21:09:09.860Z,10.23
2023-03-31T21:11:37.013Z,9.60
2023-03-31T21:14:05.842Z,9.13
2023-03-31T21:16:33.321Z,8.13
2023-03-31T21:19:00.684Z,7.25
2023-03-31T21:21:29.120Z,6.95
2023-03-31T21:23:56.473Z,7.13
2023-03-31T21:26:24.928Z,6.85
2023-03-31T21:28:54.603Z,6.30
2023-03-31T21:31:24.259Z,6.50
2023-03-31T21:33:53.609Z,5.25
2023-03-31T21:36:22.763Z,4.90
2023-03-31T21:38:52.349Z,5.00
2023-03-31T21:41:28.412Z,3.85
2023-03-31T21:43:56.498Z,3.90
2023-03-31T21:46:27.022Z,4.47
2023-03-31T21:48:55.386Z,3.50
2023-03-31T21:51:23.255Z,2.80
2023-03-31T21:53:53.219Z,3.30
2023-03-31T21:56:20.396Z,2.90
2023-03-31T21:58:47.373Z,2.78
2023-03-31T22:01:14.855Z,2.67
2023-03-31T22:03:42.531Z,3.08
2023-03-31T22:06:10.439Z,2.50
2023-03-31T22:08:38.498Z,2.65
2023-03-31T22:11:07.208Z,2.60
2023-03-31T22:13:34.663Z,2.45
2023-03-31T22:16:02.259Z,4.40
2023-03-31T22:18:30.791Z,2.33
2023-03-31T22:20:58.556Z,1.90
2023-03-31T22:23:26.163Z,1.95
2023-03-31T22:25:53.159Z,1.98
2023-03-31T22:28:21.169Z,1.60
2023-03-31T22:30:48.769Z,1.20
2023-03-31T22:33:16.351Z,1.50
2023-03-31T22:35:43.924Z,1.20
2023-03-31T22:38:14.055Z,1.38
2023-03-31T22:40:45.056Z,1.90
2023-03-31T22:43:12.191Z,1.20
2023-03-31T22:45:39.267Z,1.15
2023-03-31T22:48:08.745Z,1.23
2023-03-31T22:50:36.361Z,1.20
2023-03-31T22:53:03.611Z,1.35
2023-03-31T22:55:31.015Z,1.10
2023-03-31T22:57:58.303Z,1.17
2023-03-31T23:00:25.968Z,1.27
2023-03-31T23:02:53.125Z,1.42
2023-03-31T23:05:21.792Z,1.45
2023-03-31T23:07:48.869Z,1.58
2023-03-31T23:10:16.408Z,1.38
2023-03-31T23:12:43.575Z,1.40
2023-03-31T23:15:10.932Z,1.55
2023-03-31T23:17:38.129Z,1.35
2023-03-31T23:20:06.528Z,1.73
2023-03-31T23:22:34.494Z,1.50
2023-03-31T23:25:02.026Z,1.42
2023-03-31T23:27:29.491Z,1.40
2023-03-31T23:29:56.655Z,1.73
2023-03-31T23:32:23.781Z,1.60
2023-03-31T23:34:51.011Z,1.80
2023-03-31T23:37:19.090Z,1.60
2023-03-31T23:39:46.721Z,1.33
2023-03-31T23:42:16.199Z,1.60
2023-03-31T23:44:43.482Z,1.60
2023-03-31T23:47:10.775Z,1.50
2023-03-31T23:49:37.948Z,1.40
2023-03-31T23:52:05.293Z,1.45
2023-03-31T23:54:32.783Z,1.50
2023-03-31T23:57:00.022Z,1.40
2023-03-31T23:59:27.167Z,1.60
